createdAt,value
2023-03-11T00:00:47.406Z,15.69
2023-03-11T00:05:53.822Z,15.68
2023-03-11T00:11:00.755Z,15.70
2023-03-11T00:16:04.667Z,15.70
2023-03-11T00:21:16.321Z,15.70
2023-03-11T00:26:20.047Z,15.69
2023-03-11T00:31:23.560Z,15.69
2023-03-11T00:36:31.694Z,15.69
2023-03-11T00:41:35.607Z,15.70
2023-03-11T00:46:39.140Z,15.70
2023-03-11T00:51:45.114Z,15.70
2023-03-11T00:56:48.610Z,15.71
2023-03-11T01:01:52.222Z,15.70
2023-03-11T01:06:57.031Z,15.71
2023-03-11T01:12:00.631Z,15.70
2023-03-11T01:17:04.103Z,15.70
2023-03-11T01:22:10.323Z,15.71
2023-03-11T01:27:13.921Z,15.71
2023-03-11T01:32:17.438Z,15.68
2023-03-11T01:37:22.359Z,15.69
2023-03-11T01:42:26.061Z,15.70
2023-03-11T01:47:40.687Z,15.70
2023-03-11T01:52:46.293Z,15.71
2023-03-11T01:57:50.204Z,15.72
2023-03-11T02:02:56.169Z,15.69
2023-03-11T02:08:01.735Z,15.69
2023-03-11T02:13:05.311Z,15.72
2023-03-11T02:18:09.416Z,15.72
2023-03-11T02:23:15.894Z,15.72
2023-03-11T02:28:21.509Z,15.72
2023-03-11T02:33:26.719Z,15.72
2023-03-11T02:38:30.193Z,15.72
2023-03-11T02:43:40.724Z,15.71
2023-03-11T02:48:44.815Z,15.72
2023-03-11T02:53:51.028Z,15.72
2023-03-11T02:58:55.906Z,15.70
2023-03-11T03:03:59.429Z,15.72
2023-03-11T03:09:02.982Z,15.72
2023-03-11T03:14:07.864Z,15.72
2023-03-11T03:19:11.396Z,15.72
2023-03-11T03:24:14.845Z,15.71
2023-03-11T03:29:19.794Z,15.71
2023-03-11T03:34:23.300Z,15.69
2023-03-11T03:39:28.741Z,15.71
2023-03-11T03:44:35.022Z,15.71
2023-03-11T03:49:38.493Z,15.73
2023-03-11T03:54:41.958Z,15.72
2023-03-11T03:59:46.800Z,15.72
2023-03-11T04:04:50.325Z,15.71
2023-03-11T04:09:53.763Z,15.71
2023-03-11T04:14:58.687Z,15.71
2023-03-11T04:20:02.202Z,15.71
2023-03-11T04:25:06.351Z,15.69
2023-03-11T04:30:13.023Z,15.72
2023-03-11T04:35:16.500Z,15.69
2023-03-11T04:40:20.165Z,15.70
2023-03-11T04:45:25.104Z,15.71
2023-03-11T04:50:28.666Z,15.69
2023-03-11T04:55:33.537Z,15.71
2023-03-11T05:00:38.335Z,15.71
2023-03-11T05:05:41.691Z,15.69
2023-03-11T05:10:45.051Z,15.70
2023-03-11T05:15:50.036Z,15.70
2023-03-11T05:20:53.650Z,15.69
2023-03-11T05:25:57.026Z,15.70
2023-03-11T05:31:01.874Z,15.72
2023-03-11T05:36:06.971Z,15.72
2023-03-11T05:41:10.369Z,15.71
2023-03-11T05:46:15.197Z,15.70
2023-03-11T05:51:18.613Z,15.71
2023-03-11T05:56:23.208Z,15.73
2023-03-11T06:01:28.041Z,15.70
2023-03-11T06:06:31.514Z,15.69
2023-03-11T06:11:34.929Z,15.73
2023-03-11T06:16:39.721Z,15.72
2023-03-11T06:21:43.252Z,15.71
2023-03-11T06:26:46.972Z,15.73
2023-03-11T06:31:51.863Z,15.73
2023-03-11T06:36:55.989Z,15.72
2023-03-11T06:41:59.350Z,15.70
2023-03-11T06:47:05.291Z,15.71
2023-03-11T06:52:08.860Z,15.73
2023-03-11T06:57:12.533Z,15.71
2023-03-11T07:02:18.808Z,15.73
2023-03-11T07:07:22.195Z,15.71
2023-03-11T07:12:25.695Z,15.72
2023-03-11T07:17:30.590Z,15.73
2023-03-11T07:22:33.952Z,15.71
2023-03-11T07:27:37.353Z,15.71
2023-03-11T07:32:42.940Z,15.71
2023-03-11T07:37:46.350Z,15.72
2023-03-11T07:42:49.768Z,15.72
2023-03-11T07:47:54.650Z,15.72
2023-03-11T07:52:58.049Z,15.72
2023-03-11T07:58:01.442Z,15.71
2023-03-11T08:03:06.413Z,15.70
2023-03-11T08:08:09.781Z,15.73
2023-03-11T08:13:13.347Z,15.73
2023-03-11T08:18:18.130Z,15.71
2023-03-11T08:23:21.463Z,15.71
2023-03-11T08:28:24.856Z,15.71
2023-03-11T08:33:29.677Z,15.72
2023-03-11T08:38:33.465Z,15.73
2023-03-11T08:43:37.048Z,15.73
2023-03-11T08:48:41.832Z,15.72
2023-03-11T08:53:45.416Z,15.72
2023-03-11T08:58:49.122Z,15.73
2023-03-11T09:03:54.053Z,15.72
2023-03-11T09:08:57.632Z,15.73
2023-03-11T09:14:01.014Z,15.73
2023-03-11T09:19:07.680Z,15.74
2023-03-11T09:24:11.158Z,15.73
2023-03-11T09:29:14.555Z,15.74
2023-03-11T09:34:19.529Z,15.73
2023-03-11T09:39:23.190Z,15.72
2023-03-11T09:44:30.990Z,15.72
2023-03-11T09:49:56.545Z,15.73
2023-03-11T09:55:01.174Z,15.75
2023-03-11T10:00:06.759Z,15.74
2023-03-11T10:05:16.272Z,15.74
2023-03-11T10:10:19.887Z,15.74
2023-03-11T10:15:28.189Z,15.74
2023-03-11T10:20:39.971Z,15.75
2023-03-11T10:25:51.700Z,15.75
2023-03-11T10:30:57.798Z,15.75
2023-03-11T10:36:07.612Z,16.15
2023-03-11T10:41:17.397Z,16.21
2023-03-11T10:46:22.461Z,16.40
2023-03-11T10:51:28.898Z,16.30
2023-03-11T10:56:34.082Z,16.41
2023-03-11T11:01:37.606Z,16.44
2023-03-11T11:06:42.532Z,16.58
2023-03-11T11:12:03.490Z,16.73
2023-03-11T11:17:06.972Z,16.86
2023-03-11T11:22:15.688Z,16.98
2023-03-11T11:27:21.980Z,17.13
2023-03-11T11:32:27.362Z,17.25
2023-03-11T11:37:34.826Z,17.30
2023-03-11T11:42:39.734Z,17.39
2023-03-11T11:47:45.544Z,17.43
2023-03-11T11:52:54.397Z,17.55
2023-03-11T11:57:58.494Z,17.54
2023-03-11T12:03:27.115Z,17.52
2023-03-11T12:08:37.951Z,17.61
2023-03-11T12:13:51.176Z,17.68
2023-03-11T12:18:58.356Z,17.68
2023-03-11T12:24:14.223Z,17.68
2023-03-11T12:29:25.978Z,17.73
2023-03-11T12:34:30.057Z,17.75
2023-03-11T12:39:35.887Z,17.87
2023-03-11T12:44:39.832Z,17.88
2023-03-11T12:49:44.321Z,17.96
2023-03-11T12:54:49.699Z,17.89
2023-03-11T13:00:12.579Z,18.00
2023-03-11T13:05:23.068Z,18.07
2023-03-11T13:10:40.167Z,18.09
2023-03-11T13:15:43.606Z,18.18
2023-03-11T13:20:56.261Z,18.23
2023-03-11T13:26:13.092Z,18.34
2023-03-11T13:31:25.775Z,18.37
2023-03-11T13:36:52.714Z,18.34
2023-03-11T13:41:57.732Z,18.43
2023-03-11T13:47:05.997Z,18.42
2023-03-11T13:52:11.219Z,18.47
2023-03-11T13:57:25.591Z,18.50
2023-03-11T14:02:29.223Z,18.53
2023-03-11T14:07:35.384Z,18.53
2023-03-11T14:12:40.646Z,18.56
2023-03-11T14:17:45.299Z,18.60
2023-03-11T14:22:51.671Z,18.65
2023-03-11T14:27:58.424Z,18.66
2023-03-11T14:33:03.951Z,18.69
2023-03-11T15:12:50.060Z,18.44
2023-03-11T15:17:54.716Z,18.48
2023-03-11T15:23:01.392Z,18.55
2023-03-11T15:28:25.497Z,18.44
2023-03-11T15:33:34.694Z,18.56
2023-03-11T15:38:38.160Z,18.64
2023-03-11T15:43:46.991Z,18.59
2023-03-11T15:48:50.623Z,18.65
2023-03-11T15:53:54.484Z,18.78
2023-03-11T15:58:59.372Z,18.61
2023-03-11T16:04:03.142Z,18.66
2023-03-11T16:09:06.594Z,18.85
2023-03-11T16:14:17.160Z,18.93
2023-03-11T16:19:20.525Z,19.08
2023-03-11T16:24:25.088Z,19.23
2023-03-11T16:29:30.723Z,19.31
2023-03-11T16:34:35.114Z,19.41
2023-03-11T16:39:39.082Z,19.25
2023-03-11T16:44:43.841Z,19.23
2023-03-11T16:49:50.531Z,19.25
2023-03-11T16:54:53.872Z,19.26
2023-03-11T16:59:58.709Z,19.30
2023-03-11T17:05:03.114Z,19.34
2023-03-11T17:10:07.670Z,19.36
2023-03-11T17:15:12.881Z,19.34
2023-03-11T17:20:16.250Z,19.29
2023-03-11T17:40:59.333Z,19.56
2023-03-11T17:46:02.698Z,19.63
2023-03-11T17:51:07.411Z,19.52
2023-03-11T17:56:12.917Z,19.50
2023-03-11T18:01:17.492Z,19.50
2023-03-11T18:06:21.804Z,19.54
2023-03-11T18:11:28.301Z,19.55
2023-03-11T18:16:33.822Z,19.55
2023-03-11T18:21:37.263Z,19.53
2023-03-11T18:26:42.051Z,19.45
2023-03-11T18:31:45.425Z,19.45
2023-03-11T18:36:49.565Z,19.45
2023-03-11T18:41:54.394Z,19.46
2023-03-11T18:46:57.724Z,19.45
2023-03-11T18:52:01.102Z,19.45
2023-03-11T18:57:05.901Z,19.43
2023-03-11T19:02:10.692Z,19.48
2023-03-11T19:07:14.230Z,19.62
2023-03-11T19:12:18.992Z,19.58
2023-03-11T19:17:22.382Z,19.58
2023-03-11T19:22:25.924Z,19.55
2023-03-11T19:27:30.698Z,19.51
2023-03-11T19:32:34.100Z,19.54
2023-03-11T19:37:37.462Z,19.57
2023-03-11T19:42:42.291Z,19.54
2023-03-11T19:47:50.118Z,19.51
2023-03-11T19:52:53.559Z,19.47
2023-03-11T19:57:58.314Z,19.52
2023-03-11T20:03:02.879Z,19.44
2023-03-11T20:08:07.495Z,19.47
2023-03-11T20:13:12.487Z,19.39
2023-03-11T20:18:16.014Z,19.38
2023-03-11T20:23:19.397Z,19.32
2023-03-11T20:28:24.256Z,19.37
2023-03-11T20:33:27.714Z,19.31
2023-03-11T20:38:31.135Z,19.32
2023-03-11T20:43:36.567Z,19.29
2023-03-11T20:48:40.100Z,19.24
2023-03-11T20:53:43.809Z,19.24
2023-03-11T20:58:51.138Z,19.21
2023-03-11T21:03:55.372Z,19.20
2023-03-11T21:09:00.539Z,19.19
2023-03-11T21:14:05.895Z,19.16
2023-03-11T21:19:11.623Z,19.13
2023-03-11T21:24:15.414Z,19.12
2023-03-11T21:29:20.354Z,19.07
2023-03-11T21:34:23.774Z,19.17
2023-03-11T21:39:27.323Z,19.10
2023-03-11T21:44:32.290Z,19.07
2023-03-11T21:49:36.027Z,19.03
2023-03-11T21:54:39.469Z,18.98
2023-03-11T21:59:44.261Z,18.93
2023-03-11T22:04:48.601Z,18.90
2023-03-11T22:09:53.437Z,18.88
2023-03-11T22:14:58.380Z,18.88
2023-03-11T22:20:01.956Z,18.82
2023-03-11T22:25:05.713Z,18.77
2023-03-11T22:30:11.888Z,18.77
2023-03-11T22:35:15.447Z,18.73
2023-03-11T22:40:18.937Z,18.69
2023-03-11T22:45:23.828Z,18.66
2023-03-11T22:50:27.209Z,18.71
2023-03-11T22:55:30.571Z,18.60
2023-03-11T23:00:36.828Z,18.51
2023-03-11T23:05:42.247Z,18.45
2023-03-11T23:10:47.863Z,18.45
2023-03-11T23:15:52.697Z,18.48
2023-03-11T23:20:56.171Z,18.50
2023-03-11T23:25:59.560Z,18.51
2023-03-11T23:31:05.446Z,18.54
2023-03-11T23:36:10.630Z,18.52
2023-03-11T23:41:15.710Z,18.50
2023-03-11T23:46:20.868Z,18.52
2023-03-11T23:51:24.393Z,18.52
2023-03-11T23:56:27.728Z,18.55
